sensor_id;sensor_type;location;lat;lon;timestamp;temperature;humidity
52181;DHT22;38158;53.338;6.514;2023-08-30T00:00:19;13.80;99.90
52181;DHT22;38158;53.338;6.514;2023-08-30T00:02:46;13.80;99.90
52181;DHT22;38158;53.338;6.514;2023-08-30T00:05:13;13.80;99.90
52181;DHT22;38158;53.338;6.514;2023-08-30T00:07:39;13.80;99.90
52181;DHT22;38158;53.338;6.514;2023-08-30T00:10:06;13.80;99.90
52181;DHT22;38158;53.338;6.514;2023-08-30T00:12:32;13.80;99.90
52181;DHT22;38158;53.338;6.514;2023-08-30T00:14:58;13.80;99.90
52181;DHT22;38158;53.338;6.514;2023-08-30T00:17:24;13.70;99.90
52181;DHT22;38158;53.338;6.514;2023-08-30T00:19:50;13.70;99.90
52181;DHT22;38158;53.338;6.514;2023-08-30T00:22:18;13.70;99.90
52181;DHT22;38158;53.338;6.514;2023-08-30T00:24:44;13.70;99.90
52181;DHT22;38158;53.338;6.514;2023-08-30T00:27:10;13.60;99.90
52181;DHT22;38158;53.338;6.514;2023-08-30T00:29:37;13.60;99.90
52181;DHT22;38158;53.338;6.514;2023-08-30T00:32:03;13.60;99.90
52181;DHT22;38158;53.338;6.514;2023-08-30T00:34:29;13.60;99.90
52181;DHT22;38158;53.338;6.514;2023-08-30T00:36:55;13.60;99.90
52181;DHT22;38158;53.338;6.514;2023-08-30T00:39:21;13.50;99.90
52181;DHT22;38158;53.338;6.514;2023-08-30T00:41:47;13.50;99.90
52181;DHT22;38158;53.338;6.514;2023-08-30T00:44:12;13.50;99.90
52181;DHT22;38158;53.338;6.514;2023-08-30T00:46:38;13.40;99.90
52181;DHT22;38158;53.338;6.514;2023-08-30T00:49:04;13.40;99.90
52181;DHT22;38158;53.338;6.514;2023-08-30T00:51:31;13.40;99.90
52181;DHT22;38158;53.338;6.514;2023-08-30T00:53:58;13.30;99.90
52181;DHT22;38158;53.338;6.514;2023-08-30T00:56:26;13.30;99.90
52181;DHT22;38158;53.338;6.514;2023-08-30T00:58:53;13.30;99.90
52181;DHT22;38158;53.338;6.514;2023-08-30T01:01:18;13.30;99.90
52181;DHT22;38158;53.338;6.514;2023-08-30T01:03:45;13.30;99.90
52181;DHT22;38158;53.338;6.514;2023-08-30T01:06:10;13.30;99.90
52181;DHT22;38158;53.338;6.514;2023-08-30T01:08:37;13.30;99.90
52181;DHT22;38158;53.338;6.514;2023-08-30T01:11:35;13.30;99.90
52181;DHT22;38158;53.338;6.514;2023-08-30T01:14:07;13.30;99.90
52181;DHT22;38158;53.338;6.514;2023-08-30T01:16:33;13.30;99.90
52181;DHT22;38158;53.338;6.514;2023-08-30T01:21:58;13.30;99.90
52181;DHT22;38158;53.338;6.514;2023-08-30T01:24:45;13.40;99.90
52181;DHT22;38158;53.338;6.514;2023-08-30T01:27:15;13.30;99.90
52181;DHT22;38158;53.338;6.514;2023-08-30T01:29:44;13.30;99.90
52181;DHT22;38158;53.338;6.514;2023-08-30T01:32:11;13.40;99.90
52181;DHT22;38158;53.338;6.514;2023-08-30T01:34:39;13.40;99.90
52181;DHT22;38158;53.338;6.514;2023-08-30T01:37:06;13.30;99.90
52181;DHT22;38158;53.338;6.514;2023-08-30T01:39:32;13.40;99.90
52181;DHT22;38158;53.338;6.514;2023-08-30T01:41:58;13.30;99.90
52181;DHT22;38158;53.338;6.514;2023-08-30T01:44:29;13.30;99.90
52181;DHT22;38158;53.338;6.514;2023-08-30T01:46:56;13.30;99.90
52181;DHT22;38158;53.338;6.514;2023-08-30T01:49:24;13.30;99.90
52181;DHT22;38158;53.338;6.514;2023-08-30T01:51:50;13.30;99.90
52181;DHT22;38158;53.338;6.514;2023-08-30T01:54:18;13.40;99.90
52181;DHT22;38158;53.338;6.514;2023-08-30T01:56:44;13.40;99.90
52181;DHT22;38158;53.338;6.514;2023-08-30T01:59:11;13.40;99.90
52181;DHT22;38158;53.338;6.514;2023-08-30T02:01:36;13.40;99.90
52181;DHT22;38158;53.338;6.514;2023-08-30T02:04:02;13.40;99.90
52181;DHT22;38158;53.338;6.514;2023-08-30T02:06:39;13.40;99.90
52181;DHT22;38158;53.338;6.514;2023-08-30T02:09:17;13.40;99.90
52181;DHT22;38158;53.338;6.514;2023-08-30T02:11:44;13.40;99.90
52181;DHT22;38158;53.338;6.514;2023-08-30T02:14:13;13.30;99.90
52181;DHT22;38158;53.338;6.514;2023-08-30T02:16:43;13.30;99.90
52181;DHT22;38158;53.338;6.514;2023-08-30T02:19:11;13.30;99.90
52181;DHT22;38158;53.338;6.514;2023-08-30T02:21:39;13.40;99.90
52181;DHT22;38158;53.338;6.514;2023-08-30T02:24:05;13.30;99.90
52181;DHT22;38158;53.338;6.514;2023-08-30T02:26:30;13.30;99.90
52181;DHT22;38158;53.338;6.514;2023-08-30T02:28:56;13.30;99.90
52181;DHT22;38158;53.338;6.514;2023-08-30T02:31:22;13.30;99.90
52181;DHT22;38158;53.338;6.514;2023-08-30T02:33:47;13.30;99.90
52181;DHT22;38158;53.338;6.514;2023-08-30T02:36:13;13.20;99.90
52181;DHT22;38158;53.338;6.514;2023-08-30T02:38:39;13.20;99.90
52181;DHT22;38158;53.338;6.514;2023-08-30T02:41:04;13.30;99.90
52181;DHT22;38158;53.338;6.514;2023-08-30T02:43:30;13.20;99.90
52181;DHT22;38158;53.338;6.514;2023-08-30T02:45:56;13.20;99.90
52181;DHT22;38158;53.338;6.514;2023-08-30T02:48:22;13.20;99.90
52181;DHT22;38158;53.338;6.514;2023-08-30T02:50:47;13.20;99.90
52181;DHT22;38158;53.338;6.514;2023-08-30T02:53:13;13.10;99.90
52181;DHT22;38158;53.338;6.514;2023-08-30T02:55:39;13.20;99.90
52181;DHT22;38158;53.338;6.514;2023-08-30T02:58:04;13.10;99.90
52181;DHT22;38158;53.338;6.514;2023-08-30T03:00:30;13.10;99.90
52181;DHT22;38158;53.338;6.514;2023-08-30T03:02:55;13.10;99.90
52181;DHT22;38158;53.338;6.514;2023-08-30T03:05:21;13.00;99.90
52181;DHT22;38158;53.338;6.514;2023-08-30T03:07:47;13.00;99.90
52181;DHT22;38158;53.338;6.514;2023-08-30T03:10:13;13.00;99.90
52181;DHT22;38158;53.338;6.514;2023-08-30T03:12:38;12.90;99.90
52181;DHT22;38158;53.338;6.514;2023-08-30T03:15:05;12.90;99.90
52181;DHT22;38158;53.338;6.514;2023-08-30T03:17:30;12.90;99.90
52181;DHT22;38158;53.338;6.514;2023-08-30T03:19:56;12.90;99.90
52181;DHT22;38158;53.338;6.514;2023-08-30T03:22:22;12.80;99.90
52181;DHT22;38158;53.338;6.514;2023-08-30T03:24:48;12.70;99.90
52181;DHT22;38158;53.338;6.514;2023-08-30T03:27:15;12.70;99.90
52181;DHT22;38158;53.338;6.514;2023-08-30T03:29:41;12.60;99.90
52181;DHT22;38158;53.338;6.514;2023-08-30T03:32:07;12.60;99.90
52181;DHT22;38158;53.338;6.514;2023-08-30T03:34:32;12.60;99.90
52181;DHT22;38158;53.338;6.514;2023-08-30T03:36:58;12.50;99.90
52181;DHT22;38158;53.338;6.514;2023-08-30T03:39:24;12.50;99.90
52181;DHT22;38158;53.338;6.514;2023-08-30T03:41:50;12.50;99.90
52181;DHT22;38158;53.338;6.514;2023-08-30T03:44:16;12.50;99.90
52181;DHT22;38158;53.338;6.514;2023-08-30T03:46:41;12.40;99.90
52181;DHT22;38158;53.338;6.514;2023-08-30T03:49:07;12.40;99.90
52181;DHT22;38158;53.338;6.514;2023-08-30T03:51:33;12.30;99.90
52181;DHT22;38158;53.338;6.514;2023-08-30T03:53:59;12.20;99.90
52181;DHT22;38158;53.338;6.514;2023-08-30T03:56:25;12.20;99.90
52181;DHT22;38158;53.338;6.514;2023-08-30T03:58:50;12.20;99.90
52181;DHT22;38158;53.338;6.514;2023-08-30T04:01:16;12.20;99.90
52181;DHT22;38158;53.338;6.514;2023-08-30T04:03:42;12.20;99.90
52181;DHT22;38158;53.338;6.514;2023-08-30T04:06:07;12.20;99.90
52181;DHT22;38158;53.338;6.514;2023-08-30T04:08:33;12.20;99.90
52181;DHT22;38158;53.338;6.514;2023-08-30T04:10:59;12.10;99.90
52181;DHT22;38158;53.338;6.514;2023-08-30T04:13:24;12.10;99.90
52181;DHT22;38158;53.338;6.514;2023-08-30T04:15:51;12.10;99.90
52181;DHT22;38158;53.338;6.514;2023-08-30T04:18:17;12.10;99.90
52181;DHT22;38158;53.338;6.514;2023-08-30T04:20:47;12.00;99.90
52181;DHT22;38158;53.338;6.514;2023-08-30T04:23:13;12.00;99.90
52181;DHT22;38158;53.338;6.514;2023-08-30T04:25:39;12.00;99.90
52181;DHT22;38158;53.338;6.514;2023-08-30T04:28:05;12.00;99.90
52181;DHT22;38158;53.338;6.514;2023-08-30T04:30:30;11.90;99.90
52181;DHT22;38158;53.338;6.514;2023-08-30T04:32:56;11.90;99.90
52181;DHT22;38158;53.338;6.514;2023-08-30T04:35:22;11.90;99.90
52181;DHT22;38158;53.338;6.514;2023-08-30T04:37:48;11.90;99.90
52181;DHT22;38158;53.338;6.514;2023-08-30T04:40:16;11.90;99.90
52181;DHT22;38158;53.338;6.514;2023-08-30T04:42:41;11.90;99.90
52181;DHT22;38158;53.338;6.514;2023-08-30T04:45:08;11.90;99.90
52181;DHT22;38158;53.338;6.514;2023-08-30T04:47:35;12.00;99.90
52181;DHT22;38158;53.338;6.514;2023-08-30T04:50:00;12.00;99.90
52181;DHT22;38158;53.338;6.514;2023-08-30T04:52:26;12.00;99.90
52181;DHT22;38158;53.338;6.514;2023-08-30T04:54:52;12.00;99.90
52181;DHT22;38158;53.338;6.514;2023-08-30T04:57:18;12.00;99.90
52181;DHT22;38158;53.338;6.514;2023-08-30T04:59:44;12.10;99.90
52181;DHT22;38158;53.338;6.514;2023-08-30T05:02:10;12.10;99.90
52181;DHT22;38158;53.338;6.514;2023-08-30T05:04:36;12.20;99.90
52181;DHT22;38158;53.338;6.514;2023-08-30T05:07:02;12.20;99.90
52181;DHT22;38158;53.338;6.514;2023-08-30T05:09:29;12.30;99.90
52181;DHT22;38158;53.338;6.514;2023-08-30T05:11:55;12.30;99.90
52181;DHT22;38158;53.338;6.514;2023-08-30T05:14:21;12.40;99.90
52181;DHT22;38158;53.338;6.514;2023-08-30T05:16:48;12.40;99.90
52181;DHT22;38158;53.338;6.514;2023-08-30T05:19:14;12.50;99.90
52181;DHT22;38158;53.338;6.514;2023-08-30T05:21:41;12.50;99.90
52181;DHT22;38158;53.338;6.514;2023-08-30T05:24:07;12.50;99.90
52181;DHT22;38158;53.338;6.514;2023-08-30T05:26:33;12.50;99.90
52181;DHT22;38158;53.338;6.514;2023-08-30T05:28:58;12.60;99.90
52181;DHT22;38158;53.338;6.514;2023-08-30T05:31:24;12.60;99.90
52181;DHT22;38158;53.338;6.514;2023-08-30T05:33:50;12.60;99.90
52181;DHT22;38158;53.338;6.514;2023-08-30T05:36:17;12.70;99.90
52181;DHT22;38158;53.338;6.514;2023-08-30T05:38:42;12.70;99.90
52181;DHT22;38158;53.338;6.514;2023-08-30T05:41:08;12.70;99.90
52181;DHT22;38158;53.338;6.514;2023-08-30T05:43:34;12.70;99.90
52181;DHT22;38158;53.338;6.514;2023-08-30T05:46:00;12.80;99.90
52181;DHT22;38158;53.338;6.514;2023-08-30T05:48:29;12.80;99.90
52181;DHT22;38158;53.338;6.514;2023-08-30T05:50:55;12.90;99.90
52181;DHT22;38158;53.338;6.514;2023-08-30T05:53:20;12.90;99.90
52181;DHT22;38158;53.338;6.514;2023-08-30T05:55:46;13.00;99.90
52181;DHT22;38158;53.338;6.514;2023-08-30T05:58:12;13.00;99.90
52181;DHT22;38158;53.338;6.514;2023-08-30T06:00:39;13.10;99.90
52181;DHT22;38158;53.338;6.514;2023-08-30T06:03:05;13.10;99.90
52181;DHT22;38158;53.338;6.514;2023-08-30T06:05:30;13.10;99.90
52181;DHT22;38158;53.338;6.514;2023-08-30T06:07:56;13.20;99.90
52181;DHT22;38158;53.338;6.514;2023-08-30T06:10:23;13.20;99.90
52181;DHT22;38158;53.338;6.514;2023-08-30T06:12:49;13.30;99.90
52181;DHT22;38158;53.338;6.514;2023-08-30T06:15:14;13.30;99.90
52181;DHT22;38158;53.338;6.514;2023-08-30T06:17:40;13.40;99.90
52181;DHT22;38158;53.338;6.514;2023-08-30T06:20:06;13.40;99.90
52181;DHT22;38158;53.338;6.514;2023-08-30T06:22:32;13.50;99.90
52181;DHT22;38158;53.338;6.514;2023-08-30T06:24:58;13.40;99.90
52181;DHT22;38158;53.338;6.514;2023-08-30T06:27:24;13.60;99.90
52181;DHT22;38158;53.338;6.514;2023-08-30T06:29:49;13.60;99.90
52181;DHT22;38158;53.338;6.514;2023-08-30T06:32:16;13.60;99.90
52181;DHT22;38158;53.338;6.514;2023-08-30T06:34:42;13.60;99.90
52181;DHT22;38158;53.338;6.514;2023-08-30T06:37:08;13.70;99.90
52181;DHT22;38158;53.338;6.514;2023-08-30T06:39:34;13.70;99.90
52181;DHT22;38158;53.338;6.514;2023-08-30T06:42:01;13.70;99.90
52181;DHT22;38158;53.338;6.514;2023-08-30T06:44:27;13.70;99.90
52181;DHT22;38158;53.338;6.514;2023-08-30T06:46:54;13.80;99.90
52181;DHT22;38158;53.338;6.514;2023-08-30T06:49:20;13.80;99.90
52181;DHT22;38158;53.338;6.514;2023-08-30T06:51:45;13.80;99.90
52181;DHT22;38158;53.338;6.514;2023-08-30T06:54:11;13.70;99.90
52181;DHT22;38158;53.338;6.514;2023-08-30T06:56:36;13.80;99.90
52181;DHT22;38158;53.338;6.514;2023-08-30T06:59:02;13.80;99.90
52181;DHT22;38158;53.338;6.514;2023-08-30T07:01:28;13.90;99.90
52181;DHT22;38158;53.338;6.514;2023-08-30T07:03:53;13.90;99.90
52181;DHT22;38158;53.338;6.514;2023-08-30T07:06:19;14.00;99.90
52181;DHT22;38158;53.338;6.514;2023-08-30T07:08:45;14.00;99.90
52181;DHT22;38158;53.338;6.514;2023-08-30T07:11:10;14.10;99.90
52181;DHT22;38158;53.338;6.514;2023-08-30T07:13:36;14.20;99.90
52181;DHT22;38158;53.338;6.514;2023-08-30T07:16:02;14.20;99.90
52181;DHT22;38158;53.338;6.514;2023-08-30T07:18:29;14.30;99.90
52181;DHT22;38158;53.338;6.514;2023-08-30T07:20:54;14.30;99.90
52181;DHT22;38158;53.338;6.514;2023-08-30T07:23:20;14.30;99.90
52181;DHT22;38158;53.338;6.514;2023-08-30T07:25:46;14.30;99.90
52181;DHT22;38158;53.338;6.514;2023-08-30T07:28:11;14.30;99.90
52181;DHT22;38158;53.338;6.514;2023-08-30T07:30:37;14.30;99.90
52181;DHT22;38158;53.338;6.514;2023-08-30T07:33:04;14.50;99.90
52181;DHT22;38158;53.338;6.514;2023-08-30T07:35:30;14.60;99.90
52181;DHT22;38158;53.338;6.514;2023-08-30T07:37:56;14.70;99.90
52181;DHT22;38158;53.338;6.514;2023-08-30T07:40:22;14.80;99.90
52181;DHT22;38158;53.338;6.514;2023-08-30T07:42:52;15.00;99.90
52181;DHT22;38158;53.338;6.514;2023-08-30T07:45:18;15.10;99.90
52181;DHT22;38158;53.338;6.514;2023-08-30T07:47:43;15.30;99.90
52181;DHT22;38158;53.338;6.514;2023-08-30T07:50:09;15.40;99.90
52181;DHT22;38158;53.338;6.514;2023-08-30T07:52:35;15.50;99.90
52181;DHT22;38158;53.338;6.514;2023-08-30T07:55:01;15.60;99.90
52181;DHT22;38158;53.338;6.514;2023-08-30T07:57:27;15.60;99.90
52181;DHT22;38158;53.338;6.514;2023-08-30T07:59:52;15.70;99.90
52181;DHT22;38158;53.338;6.514;2023-08-30T08:02:18;15.70;99.90
52181;DHT22;38158;53.338;6.514;2023-08-30T08:04:44;15.70;99.90
52181;DHT22;38158;53.338;6.514;2023-08-30T08:07:10;15.70;99.90
52181;DHT22;38158;53.338;6.514;2023-08-30T08:09:35;15.70;99.90
52181;DHT22;38158;53.338;6.514;2023-08-30T08:12:03;15.70;99.90
52181;DHT22;38158;53.338;6.514;2023-08-30T08:14:29;16.40;99.90
52181;DHT22;38158;53.338;6.514;2023-08-30T08:16:54;15.60;99.90
52181;DHT22;38158;53.338;6.514;2023-08-30T08:19:20;15.70;99.90
52181;DHT22;38158;53.338;6.514;2023-08-30T08:21:47;15.60;99.90
52181;DHT22;38158;53.338;6.514;2023-08-30T08:24:13;15.60;99.90
52181;DHT22;38158;53.338;6.514;2023-08-30T08:26:39;15.70;99.90
52181;DHT22;38158;53.338;6.514;2023-08-30T08:29:04;15.70;99.90
52181;DHT22;38158;53.338;6.514;2023-08-30T08:31:30;15.70;99.90
52181;DHT22;38158;53.338;6.514;2023-08-30T08:34:11;15.70;99.90
52181;DHT22;38158;53.338;6.514;2023-08-30T08:36:38;15.70;99.90
52181;DHT22;38158;53.338;6.514;2023-08-30T08:39:04;15.70;99.90
52181;DHT22;38158;53.338;6.514;2023-08-30T08:41:35;15.80;99.90
52181;DHT22;38158;53.338;6.514;2023-08-30T08:44:05;15.90;99.90
52181;DHT22;38158;53.338;6.514;2023-08-30T08:46:32;15.90;99.90
52181;DHT22;38158;53.338;6.514;2023-08-30T08:48:59;16.00;99.90
52181;DHT22;38158;53.338;6.514;2023-08-30T08:51:27;16.10;99.90
52181;DHT22;38158;53.338;6.514;2023-08-30T08:53:55;16.10;99.90
52181;DHT22;38158;53.338;6.514;2023-08-30T08:56:27;16.30;99.90
52181;DHT22;38158;53.338;6.514;2023-08-30T08:58:54;16.30;99.90
52181;DHT22;38158;53.338;6.514;2023-08-30T09:01:20;16.30;99.90
52181;DHT22;38158;53.338;6.514;2023-08-30T09:03:46;16.30;99.90
52181;DHT22;38158;53.338;6.514;2023-08-30T09:06:12;16.30;99.90
52181;DHT22;38158;53.338;6.514;2023-08-30T09:08:39;16.30;99.90
52181;DHT22;38158;53.338;6.514;2023-08-30T09:11:05;16.30;99.90
52181;DHT22;38158;53.338;6.514;2023-08-30T09:13:31;16.30;99.90
52181;DHT22;38158;53.338;6.514;2023-08-30T09:15:57;16.30;99.90
52181;DHT22;38158;53.338;6.514;2023-08-30T09:18:22;16.30;99.90
52181;DHT22;38158;53.338;6.514;2023-08-30T09:20:53;16.30;99.90
52181;DHT22;38158;53.338;6.514;2023-08-30T09:23:19;16.30;99.90
52181;DHT22;38158;53.338;6.514;2023-08-30T09:25:46;16.20;99.90
52181;DHT22;38158;53.338;6.514;2023-08-30T09:28:12;16.20;99.90
52181;DHT22;38158;53.338;6.514;2023-08-30T09:30:39;16.20;99.90
52181;DHT22;38158;53.338;6.514;2023-08-30T09:33:04;16.20;99.90
52181;DHT22;38158;53.338;6.514;2023-08-30T09:35:31;16.20;99.90
52181;DHT22;38158;53.338;6.514;2023-08-30T09:37:57;16.20;99.90
52181;DHT22;38158;53.338;6.514;2023-08-30T09:40:23;16.20;99.90
52181;DHT22;38158;53.338;6.514;2023-08-30T09:42:48;16.20;99.90
52181;DHT22;38158;53.338;6.514;2023-08-30T09:45:32;16.30;99.90
52181;DHT22;38158;53.338;6.514;2023-08-30T09:48:01;16.20;99.90
52181;DHT22;38158;53.338;6.514;2023-08-30T09:50:29;16.20;99.90
52181;DHT22;38158;53.338;6.514;2023-08-30T09:52:57;16.20;99.90
52181;DHT22;38158;53.338;6.514;2023-08-30T09:55:22;16.20;99.90
52181;DHT22;38158;53.338;6.514;2023-08-30T09:57:49;16.30;99.90
52181;DHT22;38158;53.338;6.514;2023-08-30T10:00:15;16.30;99.90
52181;DHT22;38158;53.338;6.514;2023-08-30T10:02:44;16.40;99.90
52181;DHT22;38158;53.338;6.514;2023-08-30T10:05:10;16.40;99.90
52181;DHT22;38158;53.338;6.514;2023-08-30T10:07:39;16.40;99.90
52181;DHT22;38158;53.338;6.514;2023-08-30T10:10:05;16.50;99.90
52181;DHT22;38158;53.338;6.514;2023-08-30T10:12:34;16.60;99.90
52181;DHT22;38158;53.338;6.514;2023-08-30T10:15:00;16.50;99.90
52181;DHT22;38158;53.338;6.514;2023-08-30T10:17:32;16.50;99.90
52181;DHT22;38158;53.338;6.514;2023-08-30T10:20:04;16.50;99.90
52181;DHT22;38158;53.338;6.514;2023-08-30T10:22:33;16.40;99.90
52181;DHT22;38158;53.338;6.514;2023-08-30T10:25:35;16.40;99.90
52181;DHT22;38158;53.338;6.514;2023-08-30T10:27:56;16.40;99.90
52181;DHT22;38158;53.338;6.514;2023-08-30T10:30:22;16.40;99.90
52181;DHT22;38158;53.338;6.514;2023-08-30T10:32:48;16.30;99.90
52181;DHT22;38158;53.338;6.514;2023-08-30T10:35:15;16.30;99.90
52181;DHT22;38158;53.338;6.514;2023-08-30T10:37:42;16.20;99.90
52181;DHT22;38158;53.338;6.514;2023-08-30T10:40:08;16.30;99.90
52181;DHT22;38158;53.338;6.514;2023-08-30T10:42:34;16.30;99.90
52181;DHT22;38158;53.338;6.514;2023-08-30T10:47:30;16.50;99.90
52181;DHT22;38158;53.338;6.514;2023-08-30T10:49:57;16.60;99.90
52181;DHT22;38158;53.338;6.514;2023-08-30T10:52:24;16.60;99.90
52181;DHT22;38158;53.338;6.514;2023-08-30T10:54:50;16.60;99.90
52181;DHT22;38158;53.338;6.514;2023-08-30T10:57:19;16.60;99.90
52181;DHT22;38158;53.338;6.514;2023-08-30T11:00:08;16.60;99.90
52181;DHT22;38158;53.338;6.514;2023-08-30T11:02:36;16.60;99.90
52181;DHT22;38158;53.338;6.514;2023-08-30T11:05:04;16.70;99.90
52181;DHT22;38158;53.338;6.514;2023-08-30T11:07:31;16.80;99.90
52181;DHT22;38158;53.338;6.514;2023-08-30T11:09:57;16.90;99.90
52181;DHT22;38158;53.338;6.514;2023-08-30T11:12:23;17.00;99.90
52181;DHT22;38158;53.338;6.514;2023-08-30T11:14:52;17.00;99.90
52181;DHT22;38158;53.338;6.514;2023-08-30T11:17:18;17.00;99.90
52181;DHT22;38158;53.338;6.514;2023-08-30T11:19:44;17.00;99.90
52181;DHT22;38158;53.338;6.514;2023-08-30T11:22:10;17.10;99.90
52181;DHT22;38158;53.338;6.514;2023-08-30T11:24:36;17.00;99.90
52181;DHT22;38158;53.338;6.514;2023-08-30T11:27:01;17.00;99.90
52181;DHT22;38158;53.338;6.514;2023-08-30T11:29:27;17.00;99.90
52181;DHT22;38158;53.338;6.514;2023-08-30T11:31:53;16.90;99.90
52181;DHT22;38158;53.338;6.514;2023-08-30T11:34:22;16.80;99.90
52181;DHT22;38158;53.338;6.514;2023-08-30T11:36:50;16.80;99.90
52181;DHT22;38158;53.338;6.514;2023-08-30T11:39:19;16.80;99.90
52181;DHT22;38158;53.338;6.514;2023-08-30T11:41:46;16.80;99.90
52181;DHT22;38158;53.338;6.514;2023-08-30T11:44:12;16.80;99.90
52181;DHT22;38158;53.338;6.514;2023-08-30T11:46:38;16.90;99.90
52181;DHT22;38158;53.338;6.514;2023-08-30T11:49:04;16.90;99.90
52181;DHT22;38158;53.338;6.514;2023-08-30T11:51:30;16.80;99.90
52181;DHT22;38158;53.338;6.514;2023-08-30T11:53:56;16.70;99.90
52181;DHT22;38158;53.338;6.514;2023-08-30T11:56:23;16.70;99.90
52181;DHT22;38158;53.338;6.514;2023-08-30T11:58:49;16.70;99.90
52181;DHT22;38158;53.338;6.514;2023-08-30T12:01:15;16.60;99.90
52181;DHT22;38158;53.338;6.514;2023-08-30T12:03:40;16.60;99.90
52181;DHT22;38158;53.338;6.514;2023-08-30T12:06:10;16.50;99.90
52181;DHT22;38158;53.338;6.514;2023-08-30T12:08:37;16.40;99.90
52181;DHT22;38158;53.338;6.514;2023-08-30T12:11:03;16.40;99.90
52181;DHT22;38158;53.338;6.514;2023-08-30T12:13:31;16.30;99.90
52181;DHT22;38158;53.338;6.514;2023-08-30T12:15:58;16.20;99.90
52181;DHT22;38158;53.338;6.514;2023-08-30T12:18:25;16.20;99.90
52181;DHT22;38158;53.338;6.514;2023-08-30T12:21:02;16.20;99.90
52181;DHT22;38158;53.338;6.514;2023-08-30T12:23:32;16.30;99.90
52181;DHT22;38158;53.338;6.514;2023-08-30T12:26:06;16.40;99.90
52181;DHT22;38158;53.338;6.514;2023-08-30T12:28:36;16.30;99.90
52181;DHT22;38158;53.338;6.514;2023-08-30T12:31:03;16.40;99.90
52181;DHT22;38158;53.338;6.514;2023-08-30T12:33:33;16.50;99.90
52181;DHT22;38158;53.338;6.514;2023-08-30T12:35:59;16.50;99.90
52181;DHT22;38158;53.338;6.514;2023-08-30T12:38:25;16.50;99.90
52181;DHT22;38158;53.338;6.514;2023-08-30T12:40:53;16.40;99.90
52181;DHT22;38158;53.338;6.514;2023-08-30T12:43:19;16.30;99.90
52181;DHT22;38158;53.338;6.514;2023-08-30T12:45:46;16.30;99.90
52181;DHT22;38158;53.338;6.514;2023-08-30T12:48:12;16.30;99.90
52181;DHT22;38158;53.338;6.514;2023-08-30T12:50:46;16.30;99.90
52181;DHT22;38158;53.338;6.514;2023-08-30T12:53:12;16.20;99.90
52181;DHT22;38158;53.338;6.514;2023-08-30T12:55:37;16.20;99.90
52181;DHT22;38158;53.338;6.514;2023-08-30T12:58:09;16.10;99.90
52181;DHT22;38158;53.338;6.514;2023-08-30T13:00:35;16.10;99.90
52181;DHT22;38158;53.338;6.514;2023-08-30T13:03:01;16.00;99.90
52181;DHT22;38158;53.338;6.514;2023-08-30T13:05:29;16.00;99.90
52181;DHT22;38158;53.338;6.514;2023-08-30T13:07:55;15.90;99.90
52181;DHT22;38158;53.338;6.514;2023-08-30T13:10:21;15.90;99.90
52181;DHT22;38158;53.338;6.514;2023-08-30T13:12:47;15.80;99.90
52181;DHT22;38158;53.338;6.514;2023-08-30T13:15:13;15.70;99.90
52181;DHT22;38158;53.338;6.514;2023-08-30T13:17:38;15.80;99.90
52181;DHT22;38158;53.338;6.514;2023-08-30T13:20:04;15.70;99.90
52181;DHT22;38158;53.338;6.514;2023-08-30T13:22:30;15.60;99.90
52181;DHT22;38158;53.338;6.514;2023-08-30T13:24:56;15.60;99.90
52181;DHT22;38158;53.338;6.514;2023-08-30T13:27:22;15.50;99.90
52181;DHT22;38158;53.338;6.514;2023-08-30T13:29:48;15.50;99.90
52181;DHT22;38158;53.338;6.514;2023-08-30T13:32:14;15.40;99.90
52181;DHT22;38158;53.338;6.514;2023-08-30T13:34:39;15.40;99.90
52181;DHT22;38158;53.338;6.514;2023-08-30T13:37:05;15.40;99.90
52181;DHT22;38158;53.338;6.514;2023-08-30T13:39:31;15.30;99.90
52181;DHT22;38158;53.338;6.514;2023-08-30T13:41:57;15.30;99.90
52181;DHT22;38158;53.338;6.514;2023-08-30T13:44:23;15.20;99.90
52181;DHT22;38158;53.338;6.514;2023-08-30T13:46:49;15.10;99.90
52181;DHT22;38158;53.338;6.514;2023-08-30T13:49:16;15.00;99.90
52181;DHT22;38158;53.338;6.514;2023-08-30T13:51:44;14.90;99.90
52181;DHT22;38158;53.338;6.514;2023-08-30T13:54:10;14.80;99.90
52181;DHT22;38158;53.338;6.514;2023-08-30T13:56:36;14.80;99.90
52181;DHT22;38158;53.338;6.514;2023-08-30T13:59:03;14.70;99.90
52181;DHT22;38158;53.338;6.514;2023-08-30T14:01:31;14.70;99.90
52181;DHT22;38158;53.338;6.514;2023-08-30T14:03:57;14.60;99.90
52181;DHT22;38158;53.338;6.514;2023-08-30T14:06:23;14.60;99.90
52181;DHT22;38158;53.338;6.514;2023-08-30T14:08:48;14.60;99.90
52181;DHT22;38158;53.338;6.514;2023-08-30T14:11:14;14.60;99.90
52181;DHT22;38158;53.338;6.514;2023-08-30T14:13:40;14.60;99.90
52181;DHT22;38158;53.338;6.514;2023-08-30T14:16:06;14.70;99.90
52181;DHT22;38158;53.338;6.514;2023-08-30T14:18:31;14.70;99.90
52181;DHT22;38158;53.338;6.514;2023-08-30T14:21:00;14.80;99.90
52181;DHT22;38158;53.338;6.514;2023-08-30T14:23:28;14.80;99.90
52181;DHT22;38158;53.338;6.514;2023-08-30T14:28:23;15.00;99.90
52181;DHT22;38158;53.338;6.514;2023-08-30T14:30:49;15.00;99.90
52181;DHT22;38158;53.338;6.514;2023-08-30T14:33:14;15.10;99.90
52181;DHT22;38158;53.338;6.514;2023-08-30T14:35:43;15.10;99.90
52181;DHT22;38158;53.338;6.514;2023-08-30T14:38:09;15.20;99.90
52181;DHT22;38158;53.338;6.514;2023-08-30T14:40:35;15.30;99.90
52181;DHT22;38158;53.338;6.514;2023-08-30T14:43:02;15.30;99.90
52181;DHT22;38158;53.338;6.514;2023-08-30T14:45:29;15.40;99.90
52181;DHT22;38158;53.338;6.514;2023-08-30T14:47:54;15.50;99.90
52181;DHT22;38158;53.338;6.514;2023-08-30T14:50:20;15.60;99.90
52181;DHT22;38158;53.338;6.514;2023-08-30T14:52:46;15.60;99.90
52181;DHT22;38158;53.338;6.514;2023-08-30T14:55:12;15.60;99.90
52181;DHT22;38158;53.338;6.514;2023-08-30T14:57:37;15.70;99.90
52181;DHT22;38158;53.338;6.514;2023-08-30T15:00:04;15.70;99.90
52181;DHT22;38158;53.338;6.514;2023-08-30T15:02:31;15.70;99.90
52181;DHT22;38158;53.338;6.514;2023-08-30T15:04:57;15.80;99.90
52181;DHT22;38158;53.338;6.514;2023-08-30T15:07:23;15.80;99.90
52181;DHT22;38158;53.338;6.514;2023-08-30T15:09:48;15.90;99.90
52181;DHT22;38158;53.338;6.514;2023-08-30T15:12:15;15.90;99.90
52181;DHT22;38158;53.338;6.514;2023-08-30T15:14:41;15.90;99.90
52181;DHT22;38158;53.338;6.514;2023-08-30T15:17:08;15.90;99.90
52181;DHT22;38158;53.338;6.514;2023-08-30T15:19:35;15.90;99.90
52181;DHT22;38158;53.338;6.514;2023-08-30T15:22:00;15.90;99.90
52181;DHT22;38158;53.338;6.514;2023-08-30T15:24:26;15.90;99.90
52181;DHT22;38158;53.338;6.514;2023-08-30T15:26:52;15.90;99.90
52181;DHT22;38158;53.338;6.514;2023-08-30T15:29:17;15.90;99.90
52181;DHT22;38158;53.338;6.514;2023-08-30T15:31:43;15.90;99.90
52181;DHT22;38158;53.338;6.514;2023-08-30T15:34:10;15.90;99.90